Time;durP1;ratioP1;P1;durP2;ratioP2;P2;SDS_P1;SDS_P2;PMS_P1;PMS_P2;Temp;Humidity;BMP_temperature;BMP_pressure;BME280_temperature;BME280_humidity;BME280_pressure;Samples;Min_cycle;Max_cycle;Signal;HPM_P1;HPM_P2
2022/08/17 00:00:35;;;;;;;9.38;7.85;;;;;;;21.54;58.08;99678.38;5072263;28;20060;-62
2022/08/17 00:03:07;;;;;;;8.85;7.93;;;;;;;21.51;58.14;99677.16;5071975;28;20056;-62
2022/08/17 00:05:38;;;;;;;8.95;7.32;;;;;;;21.47;58.17;99670.69;5072673;28;20056;-61
2022/08/17 00:08:07;;;;;;;9.18;7.55;;;;;;;21.44;58.40;99665.84;5080439;28;20052;-62
2022/08/17 00:10:35;;;;;;;11.82;7.32;;;;;;;21.32;58.73;99675.56;5088878;28;20056;-61
2022/08/17 00:13:11;;;;;;;11.07;8.38;;;;;;;21.31;58.63;99668.25;5075884;28;20049;-62
2022/08/17 00:15:38;;;;;;;9.55;8.45;;;;;;;21.25;58.98;99669.88;5072616;28;20498;-62
2022/08/17 00:18:06;;;;;;;8.57;7.43;;;;;;;21.21;59.08;99669.09;5072471;28;20059;-62
2022/08/17 00:20:34;;;;;;;11.05;8.40;;;;;;;21.14;59.34;99664.25;5072665;28;20071;-60
2022/08/17 00:23:08;;;;;;;9.38;8.10;;;;;;;21.14;59.32;99672.72;5077596;28;20064;-63
2022/08/17 00:25:43;;;;;;;9.15;8.23;;;;;;;21.16;59.35;99672.34;5071972;28;20501;-61
2022/08/17 00:28:14;;;;;;;8.55;7.75;;;;;;;21.14;59.60;99663.44;5072415;28;20151;-62
2022/08/17 00:30:43;;;;;;;9.10;8.20;;;;;;;21.11;59.66;99672.75;5071722;28;20079;-62
2022/08/17 00:33:12;;;;;;;8.75;7.95;;;;;;;21.12;59.68;99663.84;5072328;28;20060;-62
2022/08/17 00:35:39;;;;;;;;;;;;;;;21.07;59.64;99670.72;5076388;28;20052;-62
2022/08/17 00:38:10;;;;;;;9.55;8.27;;;;;;;21.09;59.79;99673.16;5082928;28;19927;-62
2022/08/17 00:40:39;;;;;;;10.38;8.25;;;;;;;21.09;59.78;99668.28;5071856;28;20053;-62
2022/08/17 00:43:17;;;;;;;8.52;7.63;;;;;;;21.12;59.82;99668.69;5072078;28;20052;-62
2022/08/17 00:45:45;;;;;;;9.20;8.30;;;;;;;21.11;59.90;99667.09;5071766;28;20060;-62
2022/08/17 00:48:13;;;;;;;9.30;8.40;;;;;;;21.14;59.78;99661.41;5072112;28;20052;-62
2022/08/17 00:50:46;;;;;;;10.25;8.75;;;;;;;21.15;59.89;99662.25;5072240;28;20071;-62
2022/08/17 00:53:15;;;;;;;9.05;8.25;;;;;;;21.08;59.92;99657.38;5072247;28;20056;-62
2022/08/17 00:55:43;;;;;;;11.25;8.13;;;;;;;21.06;59.79;99654.97;5071923;28;20511;-62
2022/08/17 00:58:10;;;;;;;8.48;7.63;;;;;;;21.08;59.84;99655.38;5071405;28;20045;-62
2022/08/17 01:00:40;;;;;;;10.55;8.55;;;;;;;21.03;60.00;99663.44;5072167;28;20064;-62
2022/08/17 01:03:11;;;;;;;8.70;7.80;;;;;;;21.04;59.89;99648.91;5069799;28;20056;-61
2022/08/17 01:05:42;;;;;;;8.63;7.82;;;;;;;21.01;59.96;99649.69;5051976;28;20060;-62
2022/08/17 01:08:12;;;;;;;9.10;8.20;;;;;;;21.01;59.90;99651.72;5053810;28;20049;-62
2022/08/17 01:10:44;;;;;;;10.05;7.85;;;;;;;20.97;60.01;99637.56;5071898;28;20059;-62
2022/08/17 01:13:13;;;;;;;9.15;8.30;;;;;;;20.97;59.89;99640.38;5071832;28;20052;-62
2022/08/17 01:15:46;;;;;;;8.82;7.80;;;;;;;20.93;60.06;99635.94;5071549;28;20060;-62
2022/08/17 01:18:15;;;;;;;10.32;8.05;;;;;;;20.87;60.33;99646.88;5074519;28;20044;-62
2022/08/17 01:20:50;;;;;;;10.38;8.57;;;;;;;20.91;60.07;99642.00;5071265;28;20075;-62
2022/08/17 01:23:25;;;;;;;8.55;7.75;;;;;;;20.91;60.30;99644.84;5070144;28;20064;-62
2022/08/17 01:25:57;;;;;;;9.40;8.52;;;;;;;20.87;60.51;99655.34;5075175;28;20056;-62
2022/08/17 01:28:29;;;;;;;9.77;8.25;;;;;;;20.86;60.34;99653.75;5076058;28;20048;-62
2022/08/17 01:30:59;;;;;;;8.75;7.85;;;;;;;20.82;60.46;99656.56;5075309;28;20052;-62
2022/08/17 01:33:27;;;;;;;9.10;8.20;;;;;;;20.80;60.53;99661.84;5086926;28;20052;-62
2022/08/17 01:35:55;;;;;;;8.95;8.05;;;;;;;20.82;60.33;99655.78;5076987;28;20048;-62
2022/08/17 01:38:26;;;;;;;13.07;8.90;;;;;;;20.78;60.49;99658.59;5075399;28;20059;-62
2022/08/17 01:41:00;;;;;;;9.20;8.30;;;;;;;20.73;60.85;99655.38;5074887;28;20056;-62
2022/08/17 01:43:31;;;;;;;9.63;8.60;;;;;;;20.60;60.89;99655.78;5075826;28;20053;-62
2022/08/17 01:46:02;;;;;;;9.55;8.65;;;;;;;20.56;60.94;99659.78;5074910;28;20448;-62
2022/08/17 01:48:33;;;;;;;9.18;8.27;;;;;;;20.42;61.43;99655.69;5093698;28;20048;-62
2022/08/17 01:51:01;;;;;;;8.95;8.15;;;;;;;20.38;61.58;99656.91;5079687;28;20057;-63
2022/08/17 01:53:34;;;;;;;12.02;9.15;;;;;;;20.36;61.73;99656.50;5075767;28;20052;-62
2022/08/17 01:56:06;;;;;;;11.20;8.82;;;;;;;20.28;61.95;99656.50;5074808;28;20058;-62
2022/08/17 01:58:35;;;;;;;10.65;9.27;;;;;;;20.25;62.06;99665.78;5074738;28;20044;-62
2022/08/17 02:01:04;;;;;;;9.43;8.15;;;;;;;20.24;62.19;99661.34;5081544;28;20404;-62
2022/08/17 02:03:33;;;;;;;9.80;8.90;;;;;;;20.22;62.28;99655.28;5095648;28;20500;-63
2022/08/17 02:06:01;;;;;;;9.38;8.35;;;;;;;20.20;62.36;99654.03;5083274;28;20425;-62
2022/08/17 02:08:31;;;;;;;9.85;8.85;;;;;;;20.19;62.32;99663.75;5075225;28;20044;-62
2022/08/17 02:10:58;;;;;;;10.18;8.48;;;;;;;20.16;62.57;99659.69;5074869;28;20063;-62
2022/08/17 02:13:28;;;;;;;10.00;8.05;;;;;;;20.14;62.51;99650.81;5075401;28;20048;-62
2022/08/17 02:15:56;;;;;;;9.25;8.35;;;;;;;20.11;62.67;99651.59;5073585;28;20382;-62
2022/08/17 02:18:24;;;;;;;9.05;8.18;;;;;;;20.11;62.64;99650.78;5074969;28;20374;-63
2022/08/17 02:20:52;;;;;;;9.55;8.40;;;;;;;20.10;62.50;99652.00;5074448;28;20049;-63
2022/08/17 02:23:20;;;;;;;9.95;9.05;;;;;;;20.09;62.31;99656.84;5060495;28;20053;-64
2022/08/17 02:25:52;;;;;;;9.52;8.57;;;;;;;20.07;62.47;99654.44;5058176;28;20045;-64
2022/08/17 02:28:19;;;;;;;11.13;8.95;;;;;;;20.04;62.48;99643.91;5075366;28;20052;-59
2022/08/17 02:30:47;;;;;;;10.43;8.90;;;;;;;19.97;62.81;99660.03;5090188;28;20059;-59
2022/08/17 02:33:14;;;;;;;9.95;8.02;;;;;;;19.96;62.55;99652.75;5075027;28;20052;-60
2022/08/17 02:35:42;;;;;;;9.05;8.05;;;;;;;19.94;62.67;99649.53;5074280;28;20559;-60
2022/08/17 02:38:09;;;;;;;9.52;8.68;;;;;;;19.94;62.73;99650.31;5074834;28;20048;-58
2022/08/17 02:40:39;;;;;;;10.52;9.52;;;;;;;19.90;62.95;99646.69;5074177;28;20053;-60
2022/08/17 02:43:08;;;;;;;9.90;8.90;;;;;;;19.86;63.03;99660.81;5074001;28;20053;-58
2022/08/17 02:45:36;;;;;;;9.30;8.40;;;;;;;19.82;63.17;99651.50;5092823;28;20052;-60
2022/08/17 02:48:07;;;;;;;9.18;8.32;;;;;;;19.80;63.04;99648.28;5077466;28;20487;-60
2022/08/17 02:50:36;;;;;;;11.48;9.40;;;;;;;19.77;63.27;99649.06;5074517;28;20056;-59
2022/08/17 02:53:07;;;;;;;;;;;;;;;19.65;63.30;99640.88;5074543;28;20056;-59
2022/08/17 02:55:39;;;;;;;9.88;8.80;;;;;;;19.65;63.15;99638.91;5073976;28;20379;-59
2022/08/17 02:58:09;;;;;;;10.70;9.68;;;;;;;19.62;63.50;99636.84;5078680;28;20341;-58
2022/08/17 03:00:40;;;;;;;9.95;8.95;;;;;;;19.61;63.53;99640.06;5094237;28;20052;-59
2022/08/17 03:03:12;;;;;;;9.40;8.55;;;;;;;19.58;63.62;99643.69;5080513;28;20052;-59
2022/08/17 03:05:40;;;;;;;9.60;8.80;;;;;;;19.56;63.53;99646.09;5073857;28;20052;-59
2022/08/17 03:08:08;;;;;;;9.73;8.85;;;;;;;19.54;63.80;99642.88;5074020;28;20496;-59
2022/08/17 03:10:35;;;;;;;9.60;8.65;;;;;;;19.53;63.52;99633.59;5074184;28;20048;-59
2022/08/17 03:13:06;;;;;;;10.93;9.25;;;;;;;19.50;63.75;99630.75;5073939;28;20056;-59
2022/08/17 03:15:38;;;;;;;9.07;8.23;;;;;;;19.45;63.85;99629.91;5074030;28;20068;-59
2022/08/17 03:18:06;;;;;;;9.80;8.50;;;;;;;19.46;63.86;99637.19;5073579;28;20052;-58
2022/08/17 03:20:35;;;;;;;9.38;8.48;;;;;;;19.44;63.67;99625.47;5073487;28;20059;-58
2022/08/17 03:23:03;;;;;;;10.30;8.48;;;;;;;19.44;64.05;99636.78;5067918;28;20408;-58
2022/08/17 03:25:33;;;;;;;10.15;9.15;;;;;;;19.46;63.50;99628.72;5072802;28;20053;-59
2022/08/17 03:28:04;;;;;;;9.93;8.70;;;;;;;19.40;63.95;99633.13;5087508;28;20480;-59
2022/08/17 03:30:32;;;;;;;10.05;8.20;;;;;;;19.40;64.02;99627.47;5073389;28;20048;-59
2022/08/17 03:33:03;;;;;;;8.98;8.10;;;;;;;19.40;63.51;99633.13;5073443;28;20048;-59
2022/08/17 03:35:36;;;;;;;8.77;7.97;;;;;;;19.39;63.90;99628.66;5073687;28;20503;-58
2022/08/17 03:38:07;;;;;;;9.40;8.60;;;;;;;19.39;64.23;99630.69;5073273;28;20404;-58
2022/08/17 03:40:38;;;;;;;9.90;8.73;;;;;;;19.38;64.02;99627.06;5075348;28;20048;-59
2022/08/17 03:43:07;;;;;;;9.48;8.55;;;;;;;19.38;63.96;99631.88;5088842;28;20049;-58
2022/08/17 03:57:06;;;;;;;9.90;8.90;;;;;;;19.30;64.23;99642.34;5098092;28;20145;-59
2022/08/17 03:59:34;;;;;;;9.32;8.35;;;;;;;19.31;64.52;99638.28;5081897;28;20048;-59
2022/08/17 04:02:07;;;;;;;8.88;8.02;;;;;;;19.30;64.38;99645.16;5072096;28;20053;-58
2022/08/17 04:04:40;;;;;;;10.10;9.05;;;;;;;19.32;64.74;99642.75;5072824;28;20052;-59
2022/08/17 04:07:07;;;;;;;9.35;8.15;;;;;;;19.31;64.91;99631.84;5072600;28;20053;-59
2022/08/17 04:09:35;;;;;;;9.18;8.27;;;;;;;19.32;64.74;99636.28;5077907;28;20052;-59
2022/08/17 04:12:05;;;;;;;8.80;7.90;;;;;;;19.31;64.45;99643.94;5092908;28;20059;-59
2022/08/17 04:14:35;;;;;;;8.93;8.02;;;;;;;19.32;64.47;99642.75;5086316;28;20056;-59
2022/08/17 04:17:02;;;;;;;8.95;8.05;;;;;;;19.33;64.58;99646.38;5072223;28;20060;-59
2022/08/17 04:19:29;;;;;;;8.85;7.72;;;;;;;19.37;64.27;99647.22;5072625;28;20049;-59
2022/08/17 04:21:58;;;;;;;8.80;7.90;;;;;;;19.33;64.35;99650.00;5069311;28;20056;-59
2022/08/17 04:24:26;;;;;;;9.20;8.20;;;;;;;19.35;64.25;99653.25;5080004;28;20056;-60
2022/08/17 04:26:55;;;;;;;8.88;7.57;;;;;;;19.37;64.32;99647.22;5071873;28;20063;-60
2022/08/17 04:29:23;;;;;;;8.65;7.75;;;;;;;19.33;64.31;99652.81;5072222;28;20052;-60
2022/08/17 04:31:50;;;;;;;9.50;8.50;;;;;;;19.34;64.41;99651.63;5072020;28;20052;-60
2022/08/17 04:34:18;;;;;;;9.27;8.35;;;;;;;19.37;64.54;99653.66;5072638;28;20060;-60
2022/08/17 04:36:45;;;;;;;9.30;8.20;;;;;;;19.40;64.47;99658.53;5071977;28;20055;-60
2022/08/17 04:39:14;;;;;;;8.70;7.82;;;;;;;19.42;64.34;99660.94;5088036;28;20365;-60
2022/08/17 04:44:26;;;;;;;8.75;7.75;;;;;;;19.50;64.07;99664.63;5077402;28;20462;-59
2022/08/17 04:46:53;;;;;;;9.15;8.23;;;;;;;19.50;64.29;99656.16;5066989;28;20060;-59
2022/08/17 04:49:20;;;;;;;10.50;9.30;;;;;;;19.53;63.93;99658.19;5063995;28;20048;-60
2022/08/17 04:51:48;;;;;;;11.18;9.13;;;;;;;19.46;63.92;99667.44;5073400;28;20476;-59
2022/08/17 04:54:19;;;;;;;9.98;8.30;;;;;;;19.55;63.90;99665.06;5071933;28;20055;-59
2022/08/17 04:56:47;;;;;;;9.65;8.77;;;;;;;19.58;64.02;99664.28;5066549;28;20049;-59
2022/08/17 04:59:18;;;;;;;11.35;8.55;;;;;;;19.63;64.13;99661.09;5064095;28;20040;-49
2022/08/17 05:01:47;;;;;;;10.38;9.18;;;;;;;19.56;64.21;99660.22;5073058;28;20527;-49
2022/08/17 05:04:17;;;;;;;13.77;9.63;;;;;;;19.30;64.99;99676.22;5071588;28;20397;-47
2022/08/17 05:06:45;;;;;;;9.77;8.90;;;;;;;19.26;65.03;99672.56;5068909;28;20059;-49
2022/08/17 05:09:13;;;;;;;10.38;9.15;;;;;;;19.29;65.08;99674.59;5061609;28;20048;-48
2022/08/17 05:11:42;;;;;;;10.27;9.18;;;;;;;19.38;64.99;99677.88;5067786;28;20064;-47
2022/08/17 05:14:09;;;;;;;11.07;9.98;;;;;;;19.51;64.68;99677.53;5066293;28;20493;-52
2022/08/17 05:16:37;;;;;;;11.38;8.90;;;;;;;19.72;64.01;99674.88;5065266;28;20151;-48
2022/08/17 05:19:04;;;;;;;9.35;8.55;;;;;;;19.74;64.26;99677.28;5067930;28;20052;-49
2022/08/17 05:21:31;;;;;;;11.13;9.90;;;;;;;19.89;63.73;99686.66;5067887;28;20056;-48
2022/08/17 05:23:59;;;;;;;10.55;8.52;;;;;;;19.97;63.41;99688.28;5064238;28;20064;-47
2022/08/17 05:26:27;;;;;;;10.35;8.27;;;;;;;19.86;63.75;99677.78;5072933;28;20048;-51
2022/08/17 05:28:57;;;;;;;9.57;8.57;;;;;;;19.99;63.50;99686.72;5053417;28;20064;-49
2022/08/17 05:31:25;;;;;;;11.70;8.82;;;;;;;20.12;63.00;99677.88;5066000;28;20057;-48
2022/08/17 05:33:52;;;;;;;9.95;8.85;;;;;;;20.12;63.17;99675.84;5069284;28;20063;-46
2022/08/17 05:36:20;;;;;;;10.20;8.80;;;;;;;19.99;63.69;99683.03;5067361;28;20060;-51
2022/08/17 05:38:47;;;;;;;15.18;10.23;;;;;;;20.16;63.23;99673.00;5073511;28;20052;-47
2022/08/17 05:41:14;;;;;;;10.07;8.57;;;;;;;20.36;62.65;99674.28;5069365;28;20048;-58
2022/08/17 05:43:45;;;;;;;11.02;9.00;;;;;;;20.51;61.77;99669.44;5064176;28;20057;-59
2022/08/17 05:46:22;;;;;;;11.40;8.65;;;;;;;20.68;61.59;99677.22;5060492;28;20489;-58
2022/08/17 05:48:53;;;;;;;9.40;7.90;;;;;;;20.85;60.98;99664.28;5069505;28;20049;-58
2022/08/17 05:51:37;;;;;;;10.82;8.20;;;;;;;21.02;60.47;99673.16;5066843;28;20488;-58
2022/08/17 05:54:21;;;;;;;11.85;10.65;;;;;;;21.15;59.93;99665.06;5059283;28;20452;-58
2022/08/17 05:57:12;;;;;;;14.60;9.88;;;;;;;21.26;59.70;99665.84;5065517;28;20068;-58
2022/08/17 05:59:50;;;;;;;10.85;9.38;;;;;;;21.38;59.44;99668.25;5062161;28;20053;-58
2022/08/17 06:02:28;;;;;;;9.73;8.82;;;;;;;21.54;59.07;99665.00;5059834;28;20056;-63
2022/08/17 06:05:10;;;;;;;9.05;8.15;;;;;;;21.67;58.77;99659.69;5052682;28;20056;-62
2022/08/17 06:07:48;;;;;;;9.90;8.90;;;;;;;21.81;58.42;99658.84;5065246;28;20512;-62
2022/08/17 06:10:24;;;;;;;10.55;9.52;;;;;;;21.91;58.77;99654.38;5065989;28;20056;-63
2022/08/17 06:13:01;;;;;;;11.48;10.27;;;;;;;22.00;58.81;99652.69;5071986;28;20059;-63
2022/08/17 06:15:35;;;;;;;13.00;10.23;;;;;;;22.11;58.76;99652.63;5073521;28;20059;-62
2022/08/17 06:18:07;;;;;;;11.70;10.50;;;;;;;22.22;58.82;99653.38;5071334;28;20382;-62
2022/08/17 06:20:48;;;;;;;14.52;10.25;;;;;;;22.28;58.58;99651.75;5067285;28;20357;-63
2022/08/17 06:23:23;;;;;;;12.85;9.93;;;;;;;22.39;58.07;99653.72;5070020;28;20071;-63
2022/08/17 06:25:57;;;;;;;11.10;9.65;;;;;;;22.46;58.03;99656.50;5069883;28;20060;-62
2022/08/17 06:28:30;;;;;;;10.82;9.90;;;;;;;22.58;57.77;99655.22;5079238;28;20065;-63
2022/08/17 06:31:04;;;;;;;10.60;9.45;;;;;;;22.69;57.17;99653.91;5074212;28;20374;-62
2022/08/17 06:33:36;;;;;;;11.00;9.98;;;;;;;22.82;57.17;99650.56;5074573;28;20049;-63
2022/08/17 06:36:17;;;;;;;12.18;10.20;;;;;;;22.90;56.64;99654.94;5074625;28;20064;-63
2022/08/17 06:38:53;;;;;;;11.82;10.70;;;;;;;23.02;56.79;99648.00;5074679;28;20068;-63
2022/08/17 06:41:32;;;;;;;10.68;9.18;;;;;;;23.10;56.47;99653.19;5071927;28;20044;-62
2022/08/17 06:44:12;;;;;;;13.52;10.23;;;;;;;23.15;56.93;99651.91;5085085;28;20045;-62
2022/08/17 06:46:47;;;;;;;12.45;10.23;;;;;;;23.21;56.90;99655.13;5072410;28;20049;-62
2022/08/17 06:49:25;;;;;;;11.15;9.82;;;;;;;23.36;56.45;99650.91;5090210;28;20052;-64
2022/08/17 06:51:57;;;;;;;10.48;9.48;;;;;;;23.38;56.58;99644.81;5074130;28;20048;-62
2022/08/17 06:54:38;;;;;;;11.10;9.20;;;;;;;23.42;56.27;99643.53;5090181;28;20413;-63
2022/08/17 06:57:16;;;;;;;9.70;8.75;;;;;;;23.56;55.89;99647.44;5073495;28;20377;-63
2022/08/17 06:59:49;;;;;;;9.65;8.68;;;;;;;23.65;55.21;99656.28;5073799;28;20056;-63
2022/08/17 07:02:22;;;;;;;10.55;8.90;;;;;;;23.78;55.18;99651.66;5073657;28;20079;-63
2022/08/17 07:04:53;;;;;;;11.25;8.98;;;;;;;23.94;54.52;99647.41;5073717;28;20086;-63
2022/08/17 07:10:09;;;;;;;9.30;8.40;;;;;;;24.18;54.38;99640.56;5094479;28;20119;-63
2022/08/17 07:12:40;;;;;;;11.10;8.55;;;;;;;24.26;54.30;99641.28;5074229;28;20052;-62
2022/08/17 07:15:12;;;;;;;11.55;8.43;;;;;;;24.49;54.01;99637.72;5073173;28;20053;-63
2022/08/17 07:17:41;;;;;;;11.52;7.90;;;;;;;24.64;53.54;99641.16;5073808;28;20405;-63
2022/08/17 07:20:14;;;;;;;10.57;7.85;;;;;;;24.79;52.94;99644.56;5076182;28;20071;-63
2022/08/17 07:22:49;;;;;;;10.57;8.40;;;;;;;25.04;52.43;99653.50;5073852;28;20127;-63
2022/08/17 07:25:20;;;;;;;10.95;8.18;;;;;;;25.37;51.98;99652.97;5073484;28;20056;-63
2022/08/17 07:27:51;;;;;;;11.88;8.15;;;;;;;25.71;50.54;99652.69;5074536;28;20048;-59
2022/08/17 07:30:22;;;;;;;8.55;6.95;;;;;;;26.42;49.32;99641.00;5074248;28;20044;-57
2022/08/17 07:32:53;;;;;;;9.68;7.53;;;;;;;27.02;47.11;99646.50;5066528;28;20044;-59
2022/08/17 07:35:35;;;;;;;8.57;6.85;;;;;;;27.22;46.46;99644.34;5084079;28;20056;-59
2022/08/17 07:38:13;;;;;;;8.68;7.10;;;;;;;27.23;47.09;99648.00;5073421;28;20048;-60
2022/08/17 07:40:41;;;;;;;9.53;6.60;;;;;;;27.59;46.05;99647.03;5073927;28;20052;-63
2022/08/17 07:43:21;;;;;;;7.57;6.60;;;;;;;28.02;45.14;99649.50;5073180;28;20052;-63
2022/08/17 07:48:49;;;;;;;7.35;6.10;;;;;;;29.18;42.77;99646.66;5059440;28;20064;-59
2022/08/17 07:51:22;;;;;;;8.88;6.25;;;;;;;30.18;40.42;99651.63;5080919;28;20063;-59
2022/08/17 07:53:49;;;;;;;6.50;5.88;;;;;;;31.41;38.14;99650.28;5073008;28;20390;-59
2022/08/17 07:56:36;;;;;;;7.90;5.38;;;;;;;32.52;35.20;99653.84;5072463;28;20056;-59
2022/08/17 07:59:13;;;;;;;6.25;5.43;;;;;;;32.83;34.70;99642.03;5072806;28;20040;-59
2022/08/17 08:01:41;;;;;;;10.45;6.15;;;;;;;32.67;35.06;99648.19;5080315;28;20056;-59
2022/08/17 08:04:27;;;;;;;7.28;5.40;;;;;;;32.43;35.80;99654.69;5072604;28;20052;-57
2022/08/17 08:07:00;;;;;;;6.20;5.22;;;;;;;32.45;36.23;99655.00;5072643;28;20052;-58
2022/08/17 08:09:38;;;;;;;6.38;5.43;;;;;;;32.73;35.38;99652.03;5072682;28;20338;-59
2022/08/17 08:12:24;;;;;;;8.70;5.57;;;;;;;32.89;34.50;99653.72;5072612;28;20481;-57
2022/08/17 08:14:55;;;;;;;8.13;5.07;;;;;;;33.35;34.04;99648.47;5073949;28;20473;-59
2022/08/17 08:17:26;;;;;;;6.15;5.30;;;;;;;34.45;32.43;99647.94;5086906;28;21021;-59
2022/08/17 08:19:53;;;;;;;6.70;4.55;;;;;;;35.69;30.01;99646.84;5072673;28;20484;-56
2022/08/17 08:22:29;;;;;;;5.35;3.85;;;;;;;36.99;26.82;99645.88;5071872;28;20040;-59
2022/08/17 08:25:08;;;;;;;3.72;3.17;;;;;;;37.61;25.16;99642.50;5072631;28;20063;-57
2022/08/17 08:27:47;;;;;;;5.40;3.15;;;;;;;38.55;23.28;99632.34;5072284;28;20052;-57
2022/08/17 08:30:17;;;;;;;4.43;2.92;;;;;;;38.73;22.53;99636.06;5085945;28;20056;-57
2022/08/17 08:33:02;;;;;;;6.03;3.05;;;;;;;39.20;21.97;99652.91;5087314;28;20053;-57
2022/08/17 08:35:33;;;;;;;8.55;5.95;;;;;;;39.83;23.28;99651.31;5072275;28;20531;-57
2022/08/17 08:38:15;;;;;;;7.88;5.30;;;;;;;40.42;22.92;99654.91;5072165;28;20044;-57
2022/08/17 08:41:01;;;;;;;7.85;4.85;;;;;;;41.09;22.26;99645.50;5072292;28;20469;-58
2022/08/17 08:43:41;;;;;;;5.22;4.20;;;;;;;41.55;21.22;99643.63;5072265;28;20044;-57
2022/08/17 08:46:21;;;;;;;7.13;4.63;;;;;;;42.65;19.82;99653.97;5072087;28;20056;-57
2022/08/17 08:49:31;;;;;;;5.65;4.07;;;;;;;42.36;19.51;99663.22;5072106;28;20049;-57
2022/08/17 08:52:00;;;;;;;4.78;3.28;;;;;;;42.32;19.79;99653.19;5071954;28;20048;-57
2022/08/17 08:54:38;;;;;;;4.50;3.20;;;;;;;42.72;19.61;99659.97;5071775;28;20052;-58
2022/08/17 08:57:17;;;;;;;5.53;3.58;;;;;;;42.90;19.02;99652.47;5069699;28;20405;-59
2022/08/17 09:00:12;;;;;;;7.13;3.75;;;;;;;42.71;18.91;99652.53;5077801;28;20053;-58
2022/08/17 09:03:19;;;;;;;6.55;3.75;;;;;;;43.74;18.12;99646.25;5069350;28;20056;-58
2022/08/17 09:06:06;;;;;;;7.43;3.22;;;;;;;43.38;18.23;99649.69;5062200;28;20056;-58
2022/08/17 09:08:49;;;;;;;5.68;3.28;;;;;;;42.97;18.71;99648.88;5090040;28;20305;-59
2022/08/17 09:11:29;;;;;;;6.38;3.15;;;;;;;42.07;19.74;99658.41;5077624;28;20040;-58
2022/08/17 09:14:05;;;;;;;5.22;2.90;;;;;;;40.94;20.75;99653.91;5083765;28;20492;-58
2022/08/17 09:16:39;;;;;;;5.30;3.10;;;;;;;40.08;21.80;99650.09;5071916;28;20056;-58
2022/08/17 09:19:14;;;;;;;5.78;3.35;;;;;;;39.05;22.13;99653.22;5071879;28;20052;-59
2022/08/17 09:21:51;;;;;;;6.43;3.65;;;;;;;37.78;23.79;99655.00;5071750;28;20493;-58
2022/08/17 09:24:25;;;;;;;4.28;3.55;;;;;;;37.04;24.74;99658.84;5071694;28;20059;-58
2022/08/17 09:26:59;;;;;;;3.53;3.10;;;;;;;36.26;25.58;99656.91;5072004;28;20059;-57
2022/08/17 09:29:33;;;;;;;7.47;3.50;;;;;;;35.54;26.35;99656.38;5085451;28;20053;-57
2022/08/17 09:32:03;;;;;;;5.07;3.22;;;;;;;35.03;27.52;99663.59;5071820;28;20059;-57
2022/08/17 09:34:36;;;;;;;5.15;3.38;;;;;;;34.52;27.66;99661.97;5071455;28;20060;-57
2022/08/17 09:37:15;;;;;;;5.82;3.53;;;;;;;33.95;28.59;99665.94;5071792;28;20049;-58
2022/08/17 09:39:51;;;;;;;4.40;3.05;;;;;;;33.43;29.30;99666.22;5071488;28;20048;-58
2022/08/17 09:42:26;;;;;;;6.03;3.40;;;;;;;33.04;30.29;99671.09;5075650;28;20044;-58
2022/08/17 09:45:03;;;;;;;6.75;3.60;;;;;;;32.67;30.59;99674.94;5089148;28;20424;-58
2022/08/17 09:47:42;;;;;;;5.00;3.30;;;;;;;32.33;31.53;99673.28;5075430;28;20059;-58
2022/08/17 09:50:15;;;;;;;5.43;3.20;;;;;;;31.95;32.11;99680.38;5075282;28;20528;-59
2022/08/17 09:52:43;;;;;;;4.25;3.45;;;;;;;31.71;32.44;99686.00;5074910;28;20049;-58
2022/08/17 09:55:10;;;;;;;4.60;3.40;;;;;;;31.47;32.90;99672.22;5074666;28;20048;-61
2022/08/17 09:57:55;;;;;;;5.03;3.28;;;;;;;31.22;33.29;99675.38;5088493;28;20434;-61
2022/08/17 10:00:26;;;;;;;3.78;3.05;;;;;;;31.00;34.09;99670.53;5089421;28;20052;-61
2022/08/17 10:03:27;;;;;;;5.20;3.72;;;;;;;30.84;33.74;99665.03;5074949;28;20052;-61
2022/08/17 10:05:59;;;;;;;7.07;3.92;;;;;;;30.71;34.10;99665.94;5062731;28;20558;-62
2022/08/17 10:08:36;;;;;;;4.95;3.72;;;;;;;30.57;34.94;99660.75;5075529;28;20053;-61
2022/08/17 10:11:17;;;;;;;7.35;3.75;;;;;;;30.39;35.06;99664.38;5079110;28;20075;-61
2022/08/17 10:13:54;;;;;;;9.68;4.22;;;;;;;30.27;35.52;99677.50;5055710;28;20059;-63
2022/08/17 10:16:30;;;;;;;6.32;3.70;;;;;;;30.08;35.32;99665.09;5061812;28;20067;-63
2022/08/17 10:19:13;;;;;;;7.95;3.80;;;;;;;29.88;35.91;99674.09;5075015;28;20075;-63
2022/08/17 10:27:22;;;;;;;5.60;4.20;;;;;;;29.45;36.89;99675.59;5082225;28;20059;-61
2022/08/17 10:29:56;;;;;;;10.98;4.32;;;;;;;29.40;37.23;99676.19;5075504;28;20068;-65
2022/08/17 10:32:32;;;;;;;6.07;4.32;;;;;;;29.30;37.47;99674.50;5074509;28;20048;-63
2022/08/17 10:35:19;;;;;;;7.78;4.40;;;;;;;29.29;37.71;99679.44;5075303;28;20057;-62
2022/08/17 10:38:05;;;;;;;6.10;3.20;;;;;;;29.20;37.85;99676.47;5074333;28;20048;-62
2022/08/17 10:40:38;;;;;;;4.60;3.55;;;;;;;29.16;37.99;99681.53;5072631;28;20063;-62
2022/08/17 10:43:23;;;;;;;7.75;4.43;;;;;;;29.19;37.79;99668.31;5083273;28;20056;-63
2022/08/17 10:46:01;;;;;;;5.45;3.92;;;;;;;29.23;38.22;99669.00;5095240;28;20059;-63
2022/08/17 10:48:33;;;;;;;4.90;3.83;;;;;;;29.26;37.94;99680.38;5077848;28;20053;-62
2022/08/17 10:51:09;;;;;;;4.95;4.15;;;;;;;29.26;38.10;99680.38;5074763;28;20412;-62
2022/08/17 10:54:00;;;;;;;5.57;3.90;;;;;;;29.24;38.13;99687.84;5074015;28;20390;-62
2022/08/17 10:56:51;;;;;;;5.18;4.25;;;;;;;29.13;37.79;99691.88;5060143;28;20429;-63
2022/08/17 10:59:49;;;;;;;5.63;4.57;;;;;;;28.88;38.47;99694.75;5054348;28;20060;-62
2022/08/17 11:02:26;;;;;;;4.85;4.38;;;;;;;28.65;39.03;99688.09;5055609;28;20064;-62
2022/08/17 11:05:27;;;;;;;5.57;4.28;;;;;;;28.49;39.02;99699.66;5074169;28;20413;-62
2022/08/17 11:08:29;;;;;;;7.95;4.32;;;;;;;28.48;39.11;99707.41;5069568;28;20053;-61
2022/08/17 11:11:12;;;;;;;9.13;5.05;;;;;;;28.40;39.66;99702.38;5094400;28;20060;-63
2022/08/17 11:13:53;;;;;;;7.13;5.50;;;;;;;28.27;39.77;99702.34;5083143;28;20063;-63
2022/08/17 11:16:44;;;;;;;6.32;5.05;;;;;;;28.17;40.50;99710.00;5073802;28;20056;-61
2022/08/17 11:19:59;;;;;;;6.80;4.50;;;;;;;28.13;40.38;99707.22;5073720;28;20048;-62
2022/08/17 11:22:59;;;;;;;6.20;4.75;;;;;;;28.17;40.98;99707.13;5073043;28;20045;-62
2022/08/17 11:25:38;;;;;;;9.95;5.60;;;;;;;28.22;40.90;99711.50;5066905;28;20420;-62
2022/08/17 11:28:13;;;;;;;11.18;6.10;;;;;;;28.24;40.62;99720.44;5092489;28;20052;-62
2022/08/17 11:30:45;;;;;;;7.10;5.47;;;;;;;28.33;40.91;99720.59;5080569;28;20060;-62
2022/08/17 11:33:52;;;;;;;8.18;5.53;;;;;;;28.56;40.62;99715.81;5091713;28;20051;-62
2022/08/17 11:36:33;;;;;;;8.05;5.57;;;;;;;28.90;39.88;99721.69;5073686;28;20063;-61
2022/08/17 11:39:15;;;;;;;6.80;5.47;;;;;;;29.24;39.22;99728.78;5070947;28;20057;-62
2022/08/17 11:41:51;;;;;;;8.77;6.15;;;;;;;29.60;38.79;99718.94;5080700;28;20052;-63
2022/08/17 11:44:36;;;;;;;8.10;5.35;;;;;;;29.81;38.28;99719.47;5084792;28;20052;-61
2022/08/17 11:53:00;;;;;;;7.50;5.78;;;;;;;31.10;36.18;99706.69;5059242;28;20056;-63
2022/08/17 11:56:10;;;;;;;8.55;6.18;;;;;;;31.38;35.84;99705.94;5085709;28;20055;-62
2022/08/17 11:58:42;;;;;;;8.35;6.93;;;;;;;31.39;36.10;99711.19;5072955;28;20052;-62
2022/08/17 12:01:11;;;;;;;9.05;6.68;;;;;;;31.25;36.23;99715.50;5074233;28;20067;-61
2022/08/17 12:03:52;;;;;;;8.30;6.57;;;;;;;31.07;36.24;99724.09;5072975;28;20053;-62
2022/08/17 12:06:45;;;;;;;8.75;6.78;;;;;;;31.35;35.65;99720.00;5070768;28;20052;-61
2022/08/17 12:09:20;;;;;;;8.75;6.35;;;;;;;31.58;35.43;99709.19;5081941;28;20476;-62
2022/08/17 12:11:53;;;;;;;7.90;7.13;;;;;;;31.84;35.25;99720.41;5091901;28;20052;-62
2022/08/17 12:14:26;;;;;;;8.90;7.38;;;;;;;32.06;34.67;99715.28;5092834;28;20052;-62
2022/08/17 12:17:03;;;;;;;8.50;7.60;;;;;;;32.69;33.72;99709.88;5066221;28;20401;-62
2022/08/17 12:19:32;;;;;;;8.98;7.65;;;;;;;33.38;32.98;99701.53;5072971;28;20056;-62
2022/08/17 12:22:08;;;;;;;9.25;7.28;;;;;;;33.71;31.80;99701.47;5087937;28;20047;-62
2022/08/17 12:24:50;;;;;;;10.32;8.13;;;;;;;34.42;31.08;99695.19;5092529;28;20055;-62
2022/08/17 12:27:25;;;;;;;6.78;6.07;;;;;;;35.31;29.70;99689.25;5072852;28;20071;-62
2022/08/17 12:29:54;;;;;;;7.80;7.00;;;;;;;35.17;29.93;99691.72;5072675;28;20044;-62
2022/08/17 12:32:27;;;;;;;7.35;6.75;;;;;;;34.99;29.64;99697.72;5052731;28;20056;-62
2022/08/17 12:34:56;;;;;;;8.15;7.05;;;;;;;34.93;30.16;99688.16;5052639;28;20507;-61